createdAt,value
2018-05-13T00:01:52.458Z,75.43
2018-05-13T00:04:26.815Z,75.83
2018-05-13T00:07:01.552Z,76.22
2018-05-13T00:09:36.906Z,76.32
2018-05-13T00:12:11.887Z,76.39
2018-05-13T00:14:46.967Z,76.40
2018-05-13T00:17:21.812Z,76.48
2018-05-13T00:19:57.002Z,76.68
2018-05-13T00:22:31.737Z,76.95
2018-05-13T00:25:06.769Z,77.19
2018-05-13T00:27:41.829Z,77.34
2018-05-13T00:30:16.694Z,77.38
2018-05-13T00:32:52.010Z,78.04
2018-05-13T00:35:26.869Z,78.15
2018-05-13T00:38:02.278Z,78.35
2018-05-13T00:40:37.494Z,78.29
2018-05-13T00:43:12.782Z,78.19
2018-05-13T00:45:47.910Z,78.19
2018-05-13T00:48:22.664Z,78.42
2018-05-13T00:50:57.975Z,78.43
2018-05-13T00:53:32.814Z,78.51
2018-05-13T00:56:07.541Z,78.73
2018-05-13T00:58:42.890Z,78.83
2018-05-13T01:01:17.827Z,79.13
2018-05-13T01:03:52.942Z,79.19
2018-05-13T01:06:27.690Z,79.22
2018-05-13T01:09:02.461Z,79.22
2018-05-13T01:11:37.849Z,79.40
2018-05-13T01:14:12.845Z,79.51
2018-05-13T01:16:47.947Z,79.43
2018-05-13T01:19:22.659Z,79.19
2018-05-13T01:21:57.831Z,79.16
2018-05-13T01:24:33.013Z,79.23
2018-05-13T01:27:07.802Z,79.29
2018-05-13T01:29:43.011Z,79.27
2018-05-13T01:32:17.869Z,79.40
2018-05-13T01:34:53.073Z,79.71
2018-05-13T01:37:27.902Z,79.84
2018-05-13T01:40:03.193Z,79.48
2018-05-13T01:42:38.298Z,79.71
2018-05-13T01:45:13.758Z,80.06
2018-05-13T01:47:49.046Z,80.35
2018-05-13T01:50:24.090Z,80.78
2018-05-13T01:52:59.122Z,81.08
2018-05-13T01:55:33.582Z,81.24
2018-05-13T01:58:08.329Z,81.48
2018-05-13T02:00:43.212Z,82.15
2018-05-13T02:03:18.295Z,82.35
2018-05-13T02:05:53.098Z,82.80
2018-05-13T02:08:27.949Z,83.17
2018-05-13T02:11:02.985Z,83.21
2018-05-13T02:13:37.563Z,83.31
2018-05-13T02:16:12.897Z,83.47
2018-05-13T02:18:47.898Z,83.84
2018-05-13T02:21:23.015Z,84.19
2018-05-13T02:23:58.266Z,84.16
2018-05-13T02:26:33.206Z,84.07
2018-05-13T02:29:08.527Z,84.44
2018-05-13T02:31:43.266Z,84.66
2018-05-13T02:34:18.978Z,84.62
2018-05-13T02:36:53.990Z,85.21
2018-05-13T02:39:29.098Z,85.33
2018-05-13T02:42:03.870Z,85.25
2018-05-13T02:44:39.226Z,85.23
2018-05-13T02:47:14.285Z,85.37
2018-05-13T02:49:49.458Z,85.67
2018-05-13T02:52:24.859Z,85.65
2018-05-13T02:54:59.315Z,85.47
2018-05-13T02:57:34.001Z,85.36
2018-05-13T03:00:08.732Z,85.28
2018-05-13T03:02:43.686Z,85.22
2018-05-13T03:05:18.148Z,85.33
2018-05-13T03:07:53.175Z,85.67
2018-05-13T03:10:28.310Z,85.96
2018-05-13T03:13:03.413Z,86.05
2018-05-13T03:15:38.035Z,86.32
2018-05-13T03:18:13.023Z,86.58
2018-05-13T03:20:48.501Z,86.70
2018-05-13T03:23:24.121Z,86.87
2018-05-13T03:25:59.424Z,87.12
2018-05-13T03:28:35.010Z,87.14
2018-05-13T03:31:10.027Z,87.10
2018-05-13T03:33:44.710Z,87.22
2018-05-13T03:36:20.176Z,87.44
2018-05-13T03:38:55.368Z,87.78
2018-05-13T03:41:30.335Z,87.66
2018-05-13T03:44:05.181Z,87.85
2018-05-13T03:46:41.427Z,87.85
2018-05-13T03:49:16.296Z,87.95
2018-05-13T03:51:51.438Z,88.37
2018-05-13T03:54:26.349Z,88.45
2018-05-13T03:57:01.493Z,88.57
2018-05-13T03:59:36.447Z,88.54
2018-05-13T04:02:11.550Z,88.62
2018-05-13T04:04:47.046Z,88.67
2018-05-13T04:07:22.133Z,88.98
2018-05-13T04:10:07.866Z,89.06
2018-05-13T04:12:53.802Z,89.05
2018-05-13T04:15:27.714Z,89.31
2018-05-13T04:18:02.688Z,89.34
2018-05-13T04:20:38.252Z,89.31
2018-05-13T04:23:13.151Z,89.05
2018-05-13T04:25:48.294Z,88.96
2018-05-13T04:28:23.169Z,88.74
2018-05-13T04:30:57.811Z,88.58
2018-05-13T04:33:32.689Z,88.44
2018-05-13T04:36:07.370Z,88.04
2018-05-13T04:38:42.631Z,87.84
2018-05-13T04:41:17.725Z,87.98
2018-05-13T04:43:52.698Z,88.27
2018-05-13T04:46:27.940Z,88.50
2018-05-13T04:49:03.269Z,88.82
2018-05-13T04:51:38.514Z,88.90
2018-05-13T04:54:13.700Z,88.87
2018-05-13T04:56:49.267Z,88.82
2018-05-13T04:59:24.300Z,88.74
2018-05-13T05:01:59.523Z,88.68
2018-05-13T05:04:34.314Z,88.64
2018-05-13T05:07:09.246Z,88.46
2018-05-13T05:09:44.365Z,88.32
2018-05-13T05:12:19.225Z,87.96
2018-05-13T05:14:54.553Z,87.66
2018-05-13T05:17:29.569Z,87.50
2018-05-13T05:20:04.114Z,87.37
2018-05-13T05:22:38.834Z,87.34
2018-05-13T05:25:14.350Z,87.17
2018-05-13T05:27:49.671Z,87.07
2018-05-13T05:30:24.707Z,87.01
2018-05-13T05:32:59.528Z,87.20
2018-05-13T05:35:34.857Z,86.99
2018-05-13T05:38:10.429Z,86.22
2018-05-13T05:40:45.633Z,86.25
2018-05-13T05:43:20.341Z,85.87
2018-05-13T05:45:55.917Z,85.64
2018-05-13T05:48:30.558Z,85.98
2018-05-13T05:51:06.599Z,85.40
2018-05-13T05:53:41.823Z,85.31
2018-05-13T05:56:17.530Z,84.82
2018-05-13T05:58:52.745Z,84.67
2018-05-13T06:01:27.592Z,83.81
2018-05-13T06:04:02.425Z,83.55
2018-05-13T06:06:37.578Z,83.10
2018-05-13T06:09:12.562Z,82.40
2018-05-13T06:11:47.042Z,82.33
2018-05-13T06:14:22.549Z,82.36
2018-05-13T06:16:57.714Z,81.30
2018-05-13T06:19:32.269Z,80.66
2018-05-13T06:22:07.468Z,80.34
2018-05-13T06:24:42.824Z,79.69
2018-05-13T06:27:17.609Z,79.49
2018-05-13T06:29:52.596Z,79.49
2018-05-13T06:32:27.198Z,78.72
2018-05-13T06:35:01.669Z,78.80
2018-05-13T06:37:37.074Z,78.83
2018-05-13T06:40:11.910Z,79.09
2018-05-13T06:42:47.763Z,79.00
2018-05-13T06:45:22.737Z,77.88
2018-05-13T06:47:58.565Z,77.87
2018-05-13T06:50:33.969Z,77.62
2018-05-13T06:53:09.280Z,77.22
2018-05-13T06:55:44.708Z,76.71
2018-05-13T06:58:20.530Z,75.66
2018-05-13T07:00:55.446Z,74.79
2018-05-13T07:03:30.398Z,73.89
2018-05-13T07:06:04.855Z,73.61
2018-05-13T07:08:39.973Z,72.45
2018-05-13T07:11:14.914Z,72.28
2018-05-13T07:13:50.121Z,72.06
2018-05-13T07:16:25.722Z,72.59
2018-05-13T07:19:00.539Z,72.95
2018-05-13T07:21:35.956Z,73.32
2018-05-13T07:24:11.178Z,73.67
2018-05-13T07:26:47.793Z,74.02
2018-05-13T07:29:22.559Z,74.36
2018-05-13T07:31:57.742Z,74.36
2018-05-13T07:34:32.682Z,73.24
2018-05-13T07:37:07.925Z,73.10
2018-05-13T07:39:43.413Z,73.53
2018-05-13T07:42:18.134Z,72.73
2018-05-13T07:44:53.238Z,72.63
2018-05-13T07:47:28.734Z,72.29
2018-05-13T07:50:03.723Z,71.52
2018-05-13T07:52:38.620Z,71.47
2018-05-13T07:55:13.710Z,71.10
2018-05-13T07:57:49.413Z,70.52
2018-05-13T08:00:24.531Z,70.47
2018-05-13T08:02:59.769Z,70.81
2018-05-13T08:05:35.125Z,70.21
2018-05-13T08:08:09.500Z,69.12
2018-05-13T08:10:45.100Z,69.51
2018-05-13T08:13:20.638Z,70.29
2018-05-13T08:15:55.211Z,71.00
2018-05-13T08:18:30.678Z,71.05
2018-05-13T08:21:05.687Z,69.56
2018-05-13T08:23:42.042Z,67.49
2018-05-13T08:26:16.518Z,67.32
2018-05-13T08:28:51.395Z,67.16
2018-05-13T08:31:26.690Z,66.72
2018-05-13T08:34:01.726Z,66.07
2018-05-13T08:36:36.844Z,65.60
2018-05-13T08:39:11.848Z,64.98
2018-05-13T08:41:47.185Z,63.33
2018-05-13T08:44:22.170Z,63.45
2018-05-13T08:46:57.067Z,63.64
2018-05-13T08:49:32.393Z,62.87
2018-05-13T08:52:07.813Z,62.16
2018-05-13T08:54:42.918Z,61.35
2018-05-13T08:57:17.909Z,60.52
2018-05-13T08:59:54.046Z,61.77
2018-05-13T09:02:29.158Z,63.59
2018-05-13T09:05:04.139Z,61.99
2018-05-13T09:07:38.910Z,61.40
2018-05-13T09:10:13.902Z,61.34
2018-05-13T09:12:49.231Z,61.76
2018-05-13T09:15:23.902Z,61.75
2018-05-13T09:17:58.625Z,61.23
2018-05-13T09:20:33.682Z,61.15
2018-05-13T09:23:08.729Z,62.61
2018-05-13T09:25:43.618Z,61.31
2018-05-13T09:28:18.235Z,59.84
2018-05-13T09:30:53.494Z,58.62
2018-05-13T09:33:28.980Z,59.47
2018-05-13T09:36:03.984Z,58.79
2018-05-13T09:38:39.015Z,59.18
2018-05-13T09:41:13.977Z,57.78
2018-05-13T09:43:49.369Z,56.55
2018-05-13T09:46:24.214Z,57.34
2018-05-13T09:48:58.917Z,56.41
2018-05-13T09:51:34.198Z,57.37
2018-05-13T09:54:09.199Z,57.00
2018-05-13T09:56:44.198Z,58.01
2018-05-13T09:59:19.202Z,56.36
2018-05-13T10:01:54.096Z,57.09
2018-05-13T10:04:29.041Z,57.58
2018-05-13T10:07:04.065Z,57.86
2018-05-13T10:09:39.576Z,58.11
2018-05-13T10:12:14.945Z,58.63
2018-05-13T10:14:50.272Z,57.18
2018-05-13T10:17:25.364Z,56.88
2018-05-13T10:19:59.937Z,56.12
2018-05-13T10:22:35.366Z,54.28
2018-05-13T10:25:10.378Z,54.36
2018-05-13T10:27:45.206Z,54.65
2018-05-13T10:30:20.965Z,53.72
2018-05-13T10:32:56.082Z,54.21
2018-05-13T10:35:31.429Z,53.65
2018-05-13T10:38:05.714Z,54.74
2018-05-13T10:40:40.502Z,52.79
2018-05-13T10:43:15.229Z,51.64
2018-05-13T10:45:50.337Z,51.87
2018-05-13T10:48:25.180Z,52.68
2018-05-13T10:51:00.430Z,52.41
2018-05-13T10:53:35.591Z,51.42
2018-05-13T10:56:10.506Z,51.99
2018-05-13T10:58:46.318Z,50.70
2018-05-13T11:01:21.166Z,49.89
2018-05-13T11:03:56.402Z,50.04
2018-05-13T11:06:32.143Z,49.73
2018-05-13T11:09:06.338Z,48.88
2018-05-13T11:11:42.506Z,48.29
2018-05-13T11:14:17.362Z,48.74
2018-05-13T11:16:52.510Z,48.12
2018-05-13T11:19:27.282Z,47.72
2018-05-13T11:22:02.272Z,48.44
2018-05-13T11:24:37.261Z,48.32
2018-05-13T11:27:11.754Z,47.63
2018-05-13T11:29:47.416Z,48.62
2018-05-13T11:32:22.454Z,49.66
2018-05-13T11:34:57.682Z,49.50
2018-05-13T11:37:33.232Z,48.71
2018-05-13T11:40:08.434Z,49.01
2018-05-13T11:42:43.490Z,49.40
2018-05-13T11:45:19.270Z,48.73
2018-05-13T11:47:54.523Z,48.59
2018-05-13T11:50:29.522Z,48.39
2018-05-13T11:53:04.249Z,47.89
2018-05-13T11:55:39.281Z,48.53
2018-05-13T11:58:14.269Z,49.18
2018-05-13T12:00:49.705Z,47.76
2018-05-13T12:03:24.367Z,49.48
2018-05-13T12:05:58.822Z,47.76
2018-05-13T12:08:33.750Z,47.10
2018-05-13T12:11:08.776Z,45.41
2018-05-13T12:13:43.908Z,45.69
2018-05-13T12:16:19.295Z,46.07
2018-05-13T12:18:53.919Z,46.81
2018-05-13T12:21:28.804Z,46.33
2018-05-13T12:24:04.070Z,46.27
2018-05-13T12:26:39.614Z,46.16
2018-05-13T12:29:14.965Z,46.49
2018-05-13T12:31:49.898Z,46.94
2018-05-13T12:34:25.290Z,47.18
2018-05-13T12:37:00.958Z,46.85
2018-05-13T12:39:35.814Z,45.29
2018-05-13T12:42:11.068Z,45.01
2018-05-13T12:44:46.494Z,45.44
2018-05-13T12:47:21.803Z,44.66
2018-05-13T12:49:57.275Z,44.35
2018-05-13T12:52:32.366Z,44.81
2018-05-13T12:55:08.054Z,45.41
2018-05-13T12:57:43.918Z,45.32
2018-05-13T13:00:17.998Z,46.11
2018-05-13T13:02:53.442Z,46.76
2018-05-13T13:05:28.607Z,47.23
2018-05-13T13:08:04.114Z,48.14
2018-05-13T13:10:39.062Z,48.86
2018-05-13T13:13:14.272Z,47.09
2018-05-13T13:15:49.138Z,47.29
2018-05-13T13:18:23.921Z,47.22
2018-05-13T13:20:58.698Z,47.43
2018-05-13T13:23:33.365Z,46.99
2018-05-13T13:26:08.919Z,47.15
2018-05-13T13:28:44.041Z,46.64
2018-05-13T13:31:19.091Z,47.09
2018-05-13T13:33:54.019Z,46.32
2018-05-13T13:36:29.079Z,46.26
2018-05-13T13:39:03.522Z,46.95
2018-05-13T13:41:38.301Z,46.90
2018-05-13T13:44:13.297Z,45.03
2018-05-13T13:46:48.075Z,45.19
2018-05-13T13:49:23.205Z,46.63
2018-05-13T13:51:59.288Z,46.54
2018-05-13T13:54:34.613Z,46.70
2018-05-13T13:57:09.259Z,46.49
2018-05-13T13:59:44.061Z,45.61
2018-05-13T14:02:19.005Z,45.78
2018-05-13T14:04:54.375Z,46.43
2018-05-13T14:07:29.402Z,45.83
2018-05-13T14:10:04.007Z,46.44
2018-05-13T14:12:38.523Z,46.56
2018-05-13T14:15:13.366Z,45.22
2018-05-13T14:17:48.609Z,43.90
2018-05-13T14:20:23.779Z,43.47
2018-05-13T14:22:59.370Z,44.26
2018-05-13T14:25:34.632Z,45.05
2018-05-13T14:28:09.550Z,45.85
2018-05-13T14:30:44.941Z,45.72
2018-05-13T14:33:19.534Z,46.14
2018-05-13T14:35:55.150Z,45.43
2018-05-13T14:38:29.742Z,45.48
2018-05-13T14:41:04.531Z,45.10
2018-05-13T14:43:39.242Z,45.46
2018-05-13T14:46:14.463Z,44.94
2018-05-13T14:48:50.068Z,45.37
2018-05-13T14:51:25.080Z,45.09
2018-05-13T14:53:59.683Z,45.39
2018-05-13T14:56:34.891Z,46.57
2018-05-13T14:59:11.248Z,46.84
2018-05-13T15:01:45.861Z,47.59
2018-05-13T15:04:20.620Z,47.79
2018-05-13T15:06:55.846Z,47.63
2018-05-13T15:09:31.293Z,48.18
2018-05-13T15:12:07.080Z,48.27
2018-05-13T15:14:42.348Z,48.85
2018-05-13T15:17:17.383Z,48.82
2018-05-13T15:19:51.836Z,48.93
2018-05-13T15:22:32.707Z,49.05
2018-05-13T15:25:07.822Z,48.81
2018-05-13T15:27:42.669Z,48.45
2018-05-13T15:30:18.232Z,48.21
2018-05-13T15:32:53.540Z,48.80
2018-05-13T15:35:28.382Z,49.10
2018-05-13T15:38:03.383Z,49.23
2018-05-13T15:40:38.552Z,49.17
2018-05-13T15:43:13.929Z,51.50
2018-05-13T15:45:49.313Z,54.81
2018-05-13T15:48:24.385Z,57.24
2018-05-13T15:50:59.794Z,59.17
2018-05-13T15:53:34.474Z,60.64
2018-05-13T15:56:09.429Z,62.19
2018-05-13T15:58:44.522Z,62.94
2018-05-13T16:01:19.500Z,63.61
2018-05-13T16:03:54.726Z,64.30
2018-05-13T16:06:29.320Z,64.42
2018-05-13T16:09:03.338Z,65.07
2018-05-13T16:11:38.542Z,65.96
2018-05-13T16:14:14.386Z,66.92
2018-05-13T16:16:49.589Z,67.91
2018-05-13T16:19:24.440Z,68.30
2018-05-13T16:21:59.854Z,68.70
2018-05-13T16:24:34.449Z,67.44
2018-05-13T16:27:09.387Z,67.34
2018-05-13T16:29:44.590Z,66.76
2018-05-13T16:32:19.571Z,66.82
2018-05-13T16:34:55.006Z,67.38
2018-05-13T16:37:30.385Z,67.38
2018-05-13T16:40:05.093Z,67.67
2018-05-13T16:42:39.826Z,67.29
2018-05-13T16:45:14.799Z,67.88
2018-05-13T16:47:49.372Z,69.11
2018-05-13T16:50:24.381Z,70.33
2018-05-13T16:52:59.989Z,70.71
2018-05-13T16:55:35.268Z,71.49
2018-05-13T16:58:10.477Z,71.45
2018-05-13T17:00:45.517Z,71.33
2018-05-13T17:03:20.089Z,72.06
2018-05-13T17:05:55.858Z,72.62
2018-05-13T17:08:30.431Z,72.48
2018-05-13T17:11:05.661Z,72.22
2018-05-13T17:13:41.274Z,72.53
2018-05-13T17:16:16.936Z,72.85
2018-05-13T17:18:51.749Z,73.58
2018-05-13T17:21:27.126Z,73.62
2018-05-13T17:24:02.160Z,73.31
2018-05-13T17:26:37.169Z,72.59
2018-05-13T17:29:12.178Z,71.95
2018-05-13T17:31:46.935Z,72.23
2018-05-13T17:34:21.782Z,73.53
2018-05-13T17:36:56.258Z,73.63
2018-05-13T17:39:31.298Z,73.80
2018-05-13T17:42:06.950Z,73.42
2018-05-13T17:44:41.969Z,74.01
2018-05-13T17:47:16.644Z,74.01
2018-05-13T17:49:51.486Z,73.85
2018-05-13T17:52:26.362Z,74.52
2018-05-13T17:55:01.930Z,75.34
2018-05-13T17:57:36.924Z,75.93
2018-05-13T18:00:12.288Z,76.11
2018-05-13T18:02:46.855Z,76.20
2018-05-13T18:05:22.003Z,75.73
2018-05-13T18:07:57.198Z,75.09
2018-05-13T18:10:32.552Z,75.46
2018-05-13T18:13:08.100Z,75.87
2018-05-13T18:15:43.562Z,76.08
2018-05-13T18:18:18.956Z,76.45
2018-05-13T18:20:53.944Z,76.24
2018-05-13T18:23:28.894Z,76.57
2018-05-13T18:26:04.147Z,76.20
2018-05-13T18:28:39.041Z,75.69
2018-05-13T18:31:14.183Z,75.57
2018-05-13T18:33:49.174Z,76.00
2018-05-13T18:36:23.814Z,76.02
2018-05-13T18:39:00.431Z,76.49
2018-05-13T18:41:35.058Z,76.18
2018-05-13T18:44:10.233Z,76.41
2018-05-13T18:46:45.682Z,76.05
2018-05-13T18:49:21.023Z,76.10
2018-05-13T18:51:56.077Z,76.07
2018-05-13T18:54:31.093Z,76.45
2018-05-13T18:57:06.171Z,76.90
2018-05-13T18:59:41.296Z,77.09
2018-05-13T19:02:16.394Z,77.52
2018-05-13T19:04:51.112Z,78.53
2018-05-13T19:07:26.097Z,79.33
2018-05-13T19:10:01.390Z,80.30
2018-05-13T19:12:36.107Z,81.21
2018-05-13T19:15:11.237Z,81.71
2018-05-13T19:17:46.422Z,81.97
2018-05-13T19:20:21.102Z,82.31
2018-05-13T19:22:56.086Z,82.87
2018-05-13T19:25:31.081Z,82.86
2018-05-13T19:28:06.074Z,83.35
2018-05-13T19:30:41.026Z,83.57
2018-05-13T19:33:16.361Z,84.06
2018-05-13T19:35:51.315Z,83.98
2018-05-13T19:38:26.257Z,84.07
2018-05-13T19:41:02.182Z,84.11
2018-05-13T19:43:37.118Z,84.31
2018-05-13T19:46:12.322Z,84.76
2018-05-13T19:48:47.153Z,85.13
2018-05-13T19:51:22.107Z,85.61
2018-05-13T19:53:57.302Z,84.33
2018-05-13T19:56:32.188Z,83.13
2018-05-13T19:59:07.330Z,83.19
2018-05-13T20:01:42.751Z,83.34
2018-05-13T20:04:18.170Z,83.68
2018-05-13T20:06:53.184Z,84.14
2018-05-13T20:09:28.198Z,84.44
2018-05-13T20:12:03.453Z,84.85
2018-05-13T20:14:38.302Z,84.66
2018-05-13T20:17:13.399Z,84.62
2018-05-13T20:19:48.284Z,84.61
2018-05-13T20:22:23.141Z,84.03
2018-05-13T20:24:58.262Z,84.61
2018-05-13T20:27:33.211Z,84.76
2018-05-13T20:30:09.123Z,83.95
2018-05-13T20:32:44.279Z,83.45
2018-05-13T20:35:19.457Z,82.88
2018-05-13T20:37:54.275Z,82.71
2018-05-13T20:40:29.437Z,83.01
2018-05-13T20:43:04.214Z,82.94
2018-05-13T20:45:39.434Z,82.85
2018-05-13T20:48:14.534Z,83.07
2018-05-13T20:50:49.770Z,83.32
2018-05-13T20:53:24.817Z,83.04
2018-05-13T20:56:00.566Z,82.16
2018-05-13T20:58:35.306Z,82.78
2018-05-13T21:01:10.600Z,83.02
2018-05-13T21:03:45.388Z,82.70
2018-05-13T21:06:20.662Z,83.85
2018-05-13T21:08:55.470Z,84.44
2018-05-13T21:11:30.518Z,84.26
2018-05-13T21:14:04.931Z,83.71
2018-05-13T21:16:39.860Z,83.26
2018-05-13T21:19:15.503Z,83.34
2018-05-13T21:21:50.708Z,83.44
2018-05-13T21:24:26.403Z,83.67
2018-05-13T21:27:01.675Z,84.19
2018-05-13T21:29:36.505Z,84.75
2018-05-13T21:32:12.040Z,85.13
2018-05-13T21:34:46.902Z,85.26
2018-05-13T21:37:21.802Z,85.19
2018-05-13T21:39:57.466Z,85.14
2018-05-13T21:42:32.422Z,85.34
2018-05-13T21:45:07.409Z,85.56
2018-05-13T21:47:42.457Z,85.78
2018-05-13T21:50:17.558Z,86.11
2018-05-13T21:52:52.557Z,86.36
2018-05-13T21:55:27.598Z,86.31
2018-05-13T21:58:02.513Z,86.18
2018-05-13T22:00:37.187Z,86.25
2018-05-13T22:03:12.777Z,86.39
2018-05-13T22:05:47.601Z,86.98
2018-05-13T22:08:22.616Z,87.02
2018-05-13T22:10:57.091Z,86.60
2018-05-13T22:13:31.774Z,86.80
2018-05-13T22:16:07.134Z,87.29
2018-05-13T22:18:41.666Z,87.38
2018-05-13T22:21:16.963Z,87.36
2018-05-13T22:23:52.556Z,87.44
2018-05-13T22:26:27.742Z,87.69
2018-05-13T22:29:02.993Z,87.93
2018-05-13T22:31:37.586Z,88.08
2018-05-13T22:34:12.888Z,88.31
2018-05-13T22:36:48.021Z,88.45
2018-05-13T22:39:23.034Z,88.63
2018-05-13T22:41:58.043Z,88.89
2018-05-13T22:44:33.439Z,88.99
2018-05-13T22:47:08.542Z,89.00
2018-05-13T22:49:43.597Z,88.96
2018-05-13T22:52:18.820Z,88.86
2018-05-13T22:54:53.990Z,89.06
2018-05-13T22:57:28.835Z,89.26
2018-05-13T23:00:03.736Z,89.31
2018-05-13T23:02:38.755Z,89.44
2018-05-13T23:05:13.546Z,89.27
2018-05-13T23:07:48.675Z,89.07
2018-05-13T23:10:23.571Z,89.10
2018-05-13T23:12:58.819Z,89.22
2018-05-13T23:15:33.808Z,89.06
2018-05-13T23:18:08.991Z,88.92
2018-05-13T23:20:44.199Z,88.97
2018-05-13T23:23:19.630Z,88.85
2018-05-13T23:25:54.662Z,88.69
2018-05-13T23:28:30.192Z,88.65
2018-05-13T23:31:05.415Z,88.69
2018-05-13T23:33:39.841Z,88.58
2018-05-13T23:36:15.033Z,88.59
2018-05-13T23:38:49.815Z,88.66
2018-05-13T23:41:24.724Z,88.86
2018-05-13T23:44:01.050Z,88.87
2018-05-13T23:46:36.157Z,88.76
2018-05-13T23:49:10.998Z,88.62
2018-05-13T23:51:45.753Z,88.67
2018-05-13T23:54:21.138Z,88.93
2018-05-13T23:56:56.731Z,89.04
2018-05-13T23:59:31.235Z,89.12
